sensor_id;sensor_type;location;lat;lon;timestamp;P1;durP1;ratioP1;P2;durP2;ratioP2
53052;SDS011;38934;52.690;6.184;2023-06-19T00:00:28;10.15;;;7.78;;
53052;SDS011;38934;52.690;6.184;2023-06-19T00:02:55;10.40;;;8.10;;
53052;SDS011;38934;52.690;6.184;2023-06-19T00:05:21;8.57;;;7.50;;
53052;SDS011;38934;52.690;6.184;2023-06-19T00:07:48;9.95;;;8.02;;
53052;SDS011;38934;52.690;6.184;2023-06-19T00:10:14;10.60;;;7.72;;
53052;SDS011;38934;52.690;6.184;2023-06-19T00:12:40;10.93;;;8.23;;
53052;SDS011;38934;52.690;6.184;2023-06-19T00:15:05;10.00;;;7.90;;
53052;SDS011;38934;52.690;6.184;2023-06-19T00:17:32;11.35;;;8.27;;
53052;SDS011;38934;52.690;6.184;2023-06-19T00:19:58;9.27;;;8.05;;
53052;SDS011;38934;52.690;6.184;2023-06-19T00:22:24;9.73;;;8.30;;
53052;SDS011;38934;52.690;6.184;2023-06-19T00:24:51;8.55;;;7.50;;
53052;SDS011;38934;52.690;6.184;2023-06-19T00:27:17;9.77;;;7.72;;
53052;SDS011;38934;52.690;6.184;2023-06-19T00:29:43;10.57;;;8.00;;
53052;SDS011;38934;52.690;6.184;2023-06-19T00:32:09;8.93;;;7.65;;
53052;SDS011;38934;52.690;6.184;2023-06-19T00:34:34;8.63;;;7.72;;
53052;SDS011;38934;52.690;6.184;2023-06-19T00:37:02;8.32;;;7.43;;
53052;SDS011;38934;52.690;6.184;2023-06-19T00:39:28;8.98;;;7.78;;
53052;SDS011;38934;52.690;6.184;2023-06-19T00:41:54;9.52;;;7.65;;
53052;SDS011;38934;52.690;6.184;2023-06-19T00:44:22;8.23;;;7.40;;
53052;SDS011;38934;52.690;6.184;2023-06-19T00:46:51;11.02;;;8.20;;
53052;SDS011;38934;52.690;6.184;2023-06-19T00:49:22;8.82;;;7.93;;
53052;SDS011;38934;52.690;6.184;2023-06-19T00:51:48;8.55;;;7.22;;
53052;SDS011;38934;52.690;6.184;2023-06-19T00:54:16;8.98;;;7.82;;
53052;SDS011;38934;52.690;6.184;2023-06-19T00:56:42;9.15;;;8.18;;
53052;SDS011;38934;52.690;6.184;2023-06-19T00:59:11;9.60;;;8.20;;
53052;SDS011;38934;52.690;6.184;2023-06-19T01:01:43;9.35;;;7.75;;
53052;SDS011;38934;52.690;6.184;2023-06-19T01:04:09;9.52;;;7.53;;
53052;SDS011;38934;52.690;6.184;2023-06-19T01:09:31;8.93;;;7.70;;
53052;SDS011;38934;52.690;6.184;2023-06-19T01:12:04;8.85;;;7.78;;
53052;SDS011;38934;52.690;6.184;2023-06-19T01:14:39;10.30;;;7.40;;
53052;SDS011;38934;52.690;6.184;2023-06-19T01:17:29;8.43;;;7.60;;
53052;SDS011;38934;52.690;6.184;2023-06-19T01:19:57;11.10;;;8.02;;
53052;SDS011;38934;52.690;6.184;2023-06-19T01:22:24;10.05;;;8.07;;
53052;SDS011;38934;52.690;6.184;2023-06-19T01:24:53;10.70;;;8.23;;
53052;SDS011;38934;52.690;6.184;2023-06-19T01:27:19;7.93;;;7.13;;
53052;SDS011;38934;52.690;6.184;2023-06-19T01:29:45;8.95;;;8.05;;
53052;SDS011;38934;52.690;6.184;2023-06-19T01:32:13;8.63;;;7.68;;
53052;SDS011;38934;52.690;6.184;2023-06-19T01:34:44;11.68;;;7.68;;
53052;SDS011;38934;52.690;6.184;2023-06-19T01:37:11;10.50;;;7.88;;
53052;SDS011;38934;52.690;6.184;2023-06-19T01:39:37;8.90;;;7.90;;
53052;SDS011;38934;52.690;6.184;2023-06-19T01:42:04;10.85;;;8.00;;
53052;SDS011;38934;52.690;6.184;2023-06-19T01:44:31;8.82;;;7.88;;
53052;SDS011;38934;52.690;6.184;2023-06-19T01:46:56;8.73;;;7.72;;
53052;SDS011;38934;52.690;6.184;2023-06-19T01:49:22;9.25;;;8.00;;
53052;SDS011;38934;52.690;6.184;2023-06-19T01:51:48;8.40;;;7.50;;
53052;SDS011;38934;52.690;6.184;2023-06-19T01:54:13;9.25;;;8.00;;
53052;SDS011;38934;52.690;6.184;2023-06-19T01:56:39;7.80;;;7.00;;
53052;SDS011;38934;52.690;6.184;2023-06-19T01:59:05;8.65;;;7.63;;
53052;SDS011;38934;52.690;6.184;2023-06-19T02:01:30;8.88;;;7.40;;
53052;SDS011;38934;52.690;6.184;2023-06-19T02:03:56;9.70;;;7.25;;
53052;SDS011;38934;52.690;6.184;2023-06-19T02:06:21;9.63;;;7.47;;
53052;SDS011;38934;52.690;6.184;2023-06-19T02:08:47;8.43;;;6.93;;
53052;SDS011;38934;52.690;6.184;2023-06-19T02:11:13;22.83;;;7.70;;
53052;SDS011;38934;52.690;6.184;2023-06-19T02:13:39;9.13;;;7.30;;
53052;SDS011;38934;52.690;6.184;2023-06-19T02:16:05;9.32;;;7.03;;
53052;SDS011;38934;52.690;6.184;2023-06-19T02:18:30;9.70;;;7.72;;
53052;SDS011;38934;52.690;6.184;2023-06-19T02:20:56;7.53;;;6.68;;
53052;SDS011;38934;52.690;6.184;2023-06-19T02:23:21;9.88;;;7.35;;
53052;SDS011;38934;52.690;6.184;2023-06-19T02:25:47;8.32;;;7.40;;
53052;SDS011;38934;52.690;6.184;2023-06-19T02:28:13;8.98;;;7.20;;
53052;SDS011;38934;52.690;6.184;2023-06-19T02:30:38;8.98;;;7.10;;
53052;SDS011;38934;52.690;6.184;2023-06-19T02:33:04;9.27;;;7.32;;
53052;SDS011;38934;52.690;6.184;2023-06-19T02:35:29;9.02;;;7.60;;
53052;SDS011;38934;52.690;6.184;2023-06-19T02:37:55;9.00;;;7.13;;
53052;SDS011;38934;52.690;6.184;2023-06-19T02:40:21;8.02;;;7.20;;
53052;SDS011;38934;52.690;6.184;2023-06-19T02:42:46;9.48;;;7.50;;
53052;SDS011;38934;52.690;6.184;2023-06-19T02:45:12;11.18;;;7.45;;
53052;SDS011;38934;52.690;6.184;2023-06-19T02:47:38;7.93;;;6.97;;
53052;SDS011;38934;52.690;6.184;2023-06-19T02:50:03;8.23;;;7.13;;
53052;SDS011;38934;52.690;6.184;2023-06-19T02:52:29;9.55;;;7.20;;
53052;SDS011;38934;52.690;6.184;2023-06-19T02:54:55;7.68;;;6.60;;
53052;SDS011;38934;52.690;6.184;2023-06-19T02:57:21;8.25;;;7.28;;
53052;SDS011;38934;52.690;6.184;2023-06-19T02:59:46;8.70;;;7.03;;
53052;SDS011;38934;52.690;6.184;2023-06-19T03:02:12;7.35;;;6.53;;
53052;SDS011;38934;52.690;6.184;2023-06-19T03:04:39;8.85;;;6.60;;
53052;SDS011;38934;52.690;6.184;2023-06-19T03:07:09;6.75;;;6.05;;
53052;SDS011;38934;52.690;6.184;2023-06-19T03:09:34;8.23;;;6.45;;
53052;SDS011;38934;52.690;6.184;2023-06-19T03:12:01;7.50;;;6.10;;
53052;SDS011;38934;52.690;6.184;2023-06-19T03:14:27;9.93;;;6.30;;
53052;SDS011;38934;52.690;6.184;2023-06-19T03:16:52;7.95;;;5.80;;
53052;SDS011;38934;52.690;6.184;2023-06-19T03:19:18;7.95;;;5.90;;
53052;SDS011;38934;52.690;6.184;2023-06-19T03:21:43;6.72;;;5.95;;
53052;SDS011;38934;52.690;6.184;2023-06-19T03:24:09;8.20;;;6.18;;
53052;SDS011;38934;52.690;6.184;2023-06-19T03:26:35;7.30;;;6.13;;
53052;SDS011;38934;52.690;6.184;2023-06-19T03:29:00;7.72;;;5.97;;
53052;SDS011;38934;52.690;6.184;2023-06-19T03:31:26;6.82;;;5.93;;
53052;SDS011;38934;52.690;6.184;2023-06-19T03:33:51;6.87;;;6.03;;
53052;SDS011;38934;52.690;6.184;2023-06-19T03:36:17;7.68;;;5.95;;
53052;SDS011;38934;52.690;6.184;2023-06-19T03:38:42;7.05;;;6.05;;
53052;SDS011;38934;52.690;6.184;2023-06-19T03:41:08;7.60;;;5.88;;
53052;SDS011;38934;52.690;6.184;2023-06-19T03:43:34;7.63;;;5.45;;
53052;SDS011;38934;52.690;6.184;2023-06-19T03:45:59;7.05;;;6.18;;
53052;SDS011;38934;52.690;6.184;2023-06-19T03:48:25;7.60;;;5.40;;
53052;SDS011;38934;52.690;6.184;2023-06-19T03:50:50;6.20;;;5.40;;
53052;SDS011;38934;52.690;6.184;2023-06-19T03:53:16;6.53;;;5.03;;
53052;SDS011;38934;52.690;6.184;2023-06-19T03:55:42;7.60;;;5.00;;
53052;SDS011;38934;52.690;6.184;2023-06-19T03:58:09;7.88;;;5.28;;
53052;SDS011;38934;52.690;6.184;2023-06-19T04:00:34;5.50;;;4.63;;
53052;SDS011;38934;52.690;6.184;2023-06-19T04:03:00;9.68;;;5.07;;
53052;SDS011;38934;52.690;6.184;2023-06-19T04:05:25;5.85;;;4.18;;
53052;SDS011;38934;52.690;6.184;2023-06-19T04:07:51;4.97;;;4.03;;
53052;SDS011;38934;52.690;6.184;2023-06-19T04:10:17;5.95;;;4.65;;
53052;SDS011;38934;52.690;6.184;2023-06-19T04:12:42;5.15;;;4.25;;
53052;SDS011;38934;52.690;6.184;2023-06-19T04:15:10;5.40;;;4.47;;
53052;SDS011;38934;52.690;6.184;2023-06-19T04:17:36;6.65;;;4.45;;
53052;SDS011;38934;52.690;6.184;2023-06-19T04:20:01;5.35;;;4.40;;
53052;SDS011;38934;52.690;6.184;2023-06-19T04:22:35;6.18;;;4.57;;
53052;SDS011;38934;52.690;6.184;2023-06-19T04:25:06;5.82;;;4.60;;
53052;SDS011;38934;52.690;6.184;2023-06-19T04:27:32;6.20;;;4.38;;
53052;SDS011;38934;52.690;6.184;2023-06-19T04:29:57;4.80;;;4.30;;
53052;SDS011;38934;52.690;6.184;2023-06-19T04:32:23;6.40;;;3.85;;
53052;SDS011;38934;52.690;6.184;2023-06-19T04:34:49;5.18;;;4.43;;
53052;SDS011;38934;52.690;6.184;2023-06-19T04:37:14;5.30;;;4.45;;
53052;SDS011;38934;52.690;6.184;2023-06-19T04:39:44;6.80;;;4.40;;
53052;SDS011;38934;52.690;6.184;2023-06-19T04:42:10;5.88;;;4.43;;
53052;SDS011;38934;52.690;6.184;2023-06-19T04:44:38;5.85;;;4.40;;
53052;SDS011;38934;52.690;6.184;2023-06-19T04:47:03;5.00;;;4.30;;
53052;SDS011;38934;52.690;6.184;2023-06-19T04:49:29;5.45;;;4.85;;
53052;SDS011;38934;52.690;6.184;2023-06-19T04:51:55;5.45;;;4.03;;
53052;SDS011;38934;52.690;6.184;2023-06-19T04:54:24;6.35;;;4.40;;
53052;SDS011;38934;52.690;6.184;2023-06-19T04:56:50;5.15;;;4.20;;
53052;SDS011;38934;52.690;6.184;2023-06-19T04:59:16;5.30;;;4.40;;
53052;SDS011;38934;52.690;6.184;2023-06-19T05:01:43;5.00;;;4.35;;
53052;SDS011;38934;52.690;6.184;2023-06-19T05:04:09;6.15;;;4.40;;
53052;SDS011;38934;52.690;6.184;2023-06-19T05:06:36;6.60;;;5.05;;
53052;SDS011;38934;52.690;6.184;2023-06-19T05:09:02;4.80;;;4.30;;
53052;SDS011;38934;52.690;6.184;2023-06-19T05:11:28;6.53;;;4.88;;
53052;SDS011;38934;52.690;6.184;2023-06-19T05:13:53;6.57;;;4.88;;
53052;SDS011;38934;52.690;6.184;2023-06-19T05:16:19;6.72;;;4.75;;
53052;SDS011;38934;52.690;6.184;2023-06-19T05:18:45;5.35;;;4.70;;
53052;SDS011;38934;52.690;6.184;2023-06-19T05:21:11;5.53;;;4.97;;
53052;SDS011;38934;52.690;6.184;2023-06-19T05:23:37;6.65;;;5.07;;
53052;SDS011;38934;52.690;6.184;2023-06-19T05:26:03;5.70;;;4.93;;
53052;SDS011;38934;52.690;6.184;2023-06-19T05:28:29;8.68;;;5.18;;
53052;SDS011;38934;52.690;6.184;2023-06-19T05:30:55;8.30;;;4.55;;
53052;SDS011;38934;52.690;6.184;2023-06-19T05:33:21;6.00;;;4.80;;
53052;SDS011;38934;52.690;6.184;2023-06-19T05:35:48;5.60;;;4.35;;
53052;SDS011;38934;52.690;6.184;2023-06-19T05:38:17;7.22;;;5.15;;
53052;SDS011;38934;52.690;6.184;2023-06-19T05:40:43;5.88;;;5.28;;
53052;SDS011;38934;52.690;6.184;2023-06-19T05:43:09;7.45;;;6.07;;
53052;SDS011;38934;52.690;6.184;2023-06-19T05:45:35;8.43;;;6.90;;
53052;SDS011;38934;52.690;6.184;2023-06-19T05:48:00;9.90;;;7.18;;
53052;SDS011;38934;52.690;6.184;2023-06-19T05:50:26;11.65;;;8.20;;
53052;SDS011;38934;52.690;6.184;2023-06-19T05:52:52;10.68;;;8.50;;
53052;SDS011;38934;52.690;6.184;2023-06-19T05:55:17;11.20;;;9.27;;
53052;SDS011;38934;52.690;6.184;2023-06-19T05:57:43;11.10;;;9.32;;
53052;SDS011;38934;52.690;6.184;2023-06-19T06:00:08;12.68;;;10.07;;
53052;SDS011;38934;52.690;6.184;2023-06-19T06:02:39;13.00;;;10.77;;
53052;SDS011;38934;52.690;6.184;2023-06-19T06:05:05;12.02;;;10.82;;
53052;SDS011;38934;52.690;6.184;2023-06-19T06:07:32;13.05;;;11.10;;
53052;SDS011;38934;52.690;6.184;2023-06-19T06:09:58;12.10;;;10.20;;
53052;SDS011;38934;52.690;6.184;2023-06-19T06:12:23;13.02;;;11.45;;
53052;SDS011;38934;52.690;6.184;2023-06-19T06:14:49;12.32;;;11.02;;
53052;SDS011;38934;52.690;6.184;2023-06-19T06:17:15;11.55;;;10.43;;
53052;SDS011;38934;52.690;6.184;2023-06-19T06:19:40;11.80;;;10.52;;
53052;SDS011;38934;52.690;6.184;2023-06-19T06:22:06;12.80;;;10.13;;
53052;SDS011;38934;52.690;6.184;2023-06-19T06:24:32;12.77;;;9.98;;
53052;SDS011;38934;52.690;6.184;2023-06-19T06:26:57;10.55;;;9.45;;
53052;SDS011;38934;52.690;6.184;2023-06-19T06:29:24;11.05;;;8.82;;
53052;SDS011;38934;52.690;6.184;2023-06-19T06:31:50;13.20;;;8.32;;
53052;SDS011;38934;52.690;6.184;2023-06-19T06:34:18;10.50;;;8.40;;
53052;SDS011;38934;52.690;6.184;2023-06-19T06:36:44;10.48;;;8.38;;
53052;SDS011;38934;52.690;6.184;2023-06-19T06:39:10;10.88;;;7.32;;
53052;SDS011;38934;52.690;6.184;2023-06-19T06:41:36;8.73;;;7.75;;
53052;SDS011;38934;52.690;6.184;2023-06-19T06:44:02;8.40;;;6.97;;
53052;SDS011;38934;52.690;6.184;2023-06-19T06:46:29;9.60;;;6.90;;
53052;SDS011;38934;52.690;6.184;2023-06-19T06:48:54;7.72;;;6.57;;
53052;SDS011;38934;52.690;6.184;2023-06-19T06:51:20;7.63;;;5.80;;
53052;SDS011;38934;52.690;6.184;2023-06-19T06:53:47;6.47;;;5.18;;
53052;SDS011;38934;52.690;6.184;2023-06-19T06:56:12;6.07;;;4.68;;
53052;SDS011;38934;52.690;6.184;2023-06-19T06:58:38;5.53;;;4.30;;
53052;SDS011;38934;52.690;6.184;2023-06-19T07:01:04;6.13;;;4.50;;
53052;SDS011;38934;52.690;6.184;2023-06-19T07:03:29;6.95;;;5.28;;
53052;SDS011;38934;52.690;6.184;2023-06-19T07:05:56;5.95;;;5.35;;
53052;SDS011;38934;52.690;6.184;2023-06-19T07:08:22;9.60;;;6.22;;
53052;SDS011;38934;52.690;6.184;2023-06-19T07:10:48;7.53;;;5.47;;
53052;SDS011;38934;52.690;6.184;2023-06-19T07:13:14;6.43;;;5.68;;
53052;SDS011;38934;52.690;6.184;2023-06-19T07:15:39;10.52;;;6.43;;
53052;SDS011;38934;52.690;6.184;2023-06-19T07:18:05;7.60;;;6.55;;
53052;SDS011;38934;52.690;6.184;2023-06-19T07:20:31;8.15;;;5.85;;
53052;SDS011;38934;52.690;6.184;2023-06-19T07:22:56;6.50;;;5.82;;
53052;SDS011;38934;52.690;6.184;2023-06-19T07:25:22;7.55;;;5.75;;
53052;SDS011;38934;52.690;6.184;2023-06-19T07:27:50;5.97;;;5.35;;
53052;SDS011;38934;52.690;6.184;2023-06-19T07:30:16;7.03;;;6.32;;
53052;SDS011;38934;52.690;6.184;2023-06-19T07:32:42;7.70;;;5.90;;
53052;SDS011;38934;52.690;6.184;2023-06-19T07:35:07;6.82;;;6.13;;
53052;SDS011;38934;52.690;6.184;2023-06-19T07:37:33;7.63;;;5.80;;
53052;SDS011;38934;52.690;6.184;2023-06-19T07:39:59;7.30;;;5.95;;
53052;SDS011;38934;52.690;6.184;2023-06-19T07:42:25;6.45;;;5.60;;
53052;SDS011;38934;52.690;6.184;2023-06-19T07:44:51;6.10;;;5.50;;
53052;SDS011;38934;52.690;6.184;2023-06-19T07:47:17;6.60;;;5.82;;
53052;SDS011;38934;52.690;6.184;2023-06-19T07:49:43;7.60;;;6.10;;
53052;SDS011;38934;52.690;6.184;2023-06-19T07:52:09;7.03;;;6.32;;
53052;SDS011;38934;52.690;6.184;2023-06-19T07:54:35;8.32;;;5.82;;
53052;SDS011;38934;52.690;6.184;2023-06-19T07:57:01;8.40;;;7.53;;
53052;SDS011;38934;52.690;6.184;2023-06-19T07:59:27;7.30;;;6.60;;
53052;SDS011;38934;52.690;6.184;2023-06-19T08:01:52;8.57;;;7.70;;
53052;SDS011;38934;52.690;6.184;2023-06-19T08:04:18;7.97;;;7.03;;
53052;SDS011;38934;52.690;6.184;2023-06-19T08:06:43;8.07;;;7.28;;
53052;SDS011;38934;52.690;6.184;2023-06-19T08:09:09;7.47;;;6.78;;
53052;SDS011;38934;52.690;6.184;2023-06-19T08:11:35;6.95;;;6.25;;
53052;SDS011;38934;52.690;6.184;2023-06-19T08:14:02;8.35;;;6.45;;
53052;SDS011;38934;52.690;6.184;2023-06-19T08:16:27;9.18;;;7.45;;
53052;SDS011;38934;52.690;6.184;2023-06-19T08:18:53;8.00;;;6.30;;
53052;SDS011;38934;52.690;6.184;2023-06-19T08:21:19;7.80;;;6.25;;
53052;SDS011;38934;52.690;6.184;2023-06-19T08:23:46;7.47;;;6.00;;
53052;SDS011;38934;52.690;6.184;2023-06-19T08:26:12;8.48;;;5.75;;
53052;SDS011;38934;52.690;6.184;2023-06-19T08:28:37;8.27;;;5.75;;
53052;SDS011;38934;52.690;6.184;2023-06-19T08:31:03;9.00;;;6.10;;
53052;SDS011;38934;52.690;6.184;2023-06-19T08:33:29;7.22;;;5.40;;
53052;SDS011;38934;52.690;6.184;2023-06-19T08:35:55;9.32;;;5.68;;
53052;SDS011;38934;52.690;6.184;2023-06-19T08:38:21;7.00;;;5.30;;
53052;SDS011;38934;52.690;6.184;2023-06-19T08:40:46;7.18;;;5.50;;
53052;SDS011;38934;52.690;6.184;2023-06-19T08:43:12;7.40;;;5.40;;
53052;SDS011;38934;52.690;6.184;2023-06-19T08:45:38;7.70;;;5.97;;
53052;SDS011;38934;52.690;6.184;2023-06-19T08:48:03;6.00;;;5.03;;
53052;SDS011;38934;52.690;6.184;2023-06-19T08:50:30;7.88;;;5.47;;
53052;SDS011;38934;52.690;6.184;2023-06-19T08:52:56;8.73;;;6.28;;
53052;SDS011;38934;52.690;6.184;2023-06-19T08:55:22;7.82;;;5.53;;
53052;SDS011;38934;52.690;6.184;2023-06-19T08:57:48;9.38;;;6.90;;
53052;SDS011;38934;52.690;6.184;2023-06-19T09:00:25;10.18;;;6.65;;
53052;SDS011;38934;52.690;6.184;2023-06-19T09:02:52;12.82;;;7.10;;
53052;SDS011;38934;52.690;6.184;2023-06-19T09:05:23;9.90;;;7.72;;
53052;SDS011;38934;52.690;6.184;2023-06-19T09:07:55;9.57;;;7.82;;
53052;SDS011;38934;52.690;6.184;2023-06-19T09:10:28;11.10;;;7.68;;
53052;SDS011;38934;52.690;6.184;2023-06-19T09:12:57;11.40;;;8.43;;
53052;SDS011;38934;52.690;6.184;2023-06-19T09:15:30;10.15;;;8.63;;
53052;SDS011;38934;52.690;6.184;2023-06-19T09:18:05;9.85;;;7.60;;
53052;SDS011;38934;52.690;6.184;2023-06-19T09:20:33;12.02;;;8.10;;
53052;SDS011;38934;52.690;6.184;2023-06-19T09:23:00;11.63;;;8.65;;
53052;SDS011;38934;52.690;6.184;2023-06-19T09:25:25;17.88;;;9.63;;
53052;SDS011;38934;52.690;6.184;2023-06-19T09:27:52;16.00;;;10.10;;
53052;SDS011;38934;52.690;6.184;2023-06-19T09:30:21;10.23;;;9.13;;
53052;SDS011;38934;52.690;6.184;2023-06-19T09:32:47;9.38;;;7.65;;
53052;SDS011;38934;52.690;6.184;2023-06-19T09:35:14;9.90;;;7.45;;
53052;SDS011;38934;52.690;6.184;2023-06-19T09:37:40;9.57;;;7.90;;
53052;SDS011;38934;52.690;6.184;2023-06-19T09:40:06;10.10;;;7.45;;
53052;SDS011;38934;52.690;6.184;2023-06-19T09:42:39;11.27;;;8.45;;
53052;SDS011;38934;52.690;6.184;2023-06-19T09:45:10;12.80;;;8.68;;
53052;SDS011;38934;52.690;6.184;2023-06-19T09:47:37;9.68;;;8.27;;
53052;SDS011;38934;52.690;6.184;2023-06-19T09:50:05;11.77;;;8.80;;
53052;SDS011;38934;52.690;6.184;2023-06-19T09:52:31;10.68;;;8.32;;
53052;SDS011;38934;52.690;6.184;2023-06-19T09:54:58;8.45;;;7.45;;
53052;SDS011;38934;52.690;6.184;2023-06-19T09:57:27;8.48;;;7.30;;
53052;SDS011;38934;52.690;6.184;2023-06-19T09:59:54;9.52;;;7.68;;
53052;SDS011;38934;52.690;6.184;2023-06-19T10:02:22;9.95;;;8.15;;
53052;SDS011;38934;52.690;6.184;2023-06-19T10:04:50;9.15;;;7.60;;
53052;SDS011;38934;52.690;6.184;2023-06-19T10:07:21;10.32;;;7.20;;
53052;SDS011;38934;52.690;6.184;2023-06-19T10:10:06;9.45;;;7.82;;
53052;SDS011;38934;52.690;6.184;2023-06-19T10:15:09;9.27;;;7.43;;
53052;SDS011;38934;52.690;6.184;2023-06-19T10:17:35;9.00;;;7.43;;
53052;SDS011;38934;52.690;6.184;2023-06-19T10:20:02;7.90;;;7.10;;
53052;SDS011;38934;52.690;6.184;2023-06-19T10:22:31;9.63;;;7.03;;
53052;SDS011;38934;52.690;6.184;2023-06-19T10:24:57;9.30;;;6.72;;
53052;SDS011;38934;52.690;6.184;2023-06-19T10:27:23;8.23;;;7.22;;
53052;SDS011;38934;52.690;6.184;2023-06-19T10:29:53;8.02;;;6.85;;
53052;SDS011;38934;52.690;6.184;2023-06-19T10:32:19;9.68;;;7.07;;
53052;SDS011;38934;52.690;6.184;2023-06-19T10:34:46;10.13;;;7.30;;
53052;SDS011;38934;52.690;6.184;2023-06-19T10:37:14;8.63;;;6.90;;
53052;SDS011;38934;52.690;6.184;2023-06-19T10:39:40;12.25;;;7.55;;
53052;SDS011;38934;52.690;6.184;2023-06-19T10:42:06;10.82;;;8.18;;
53052;SDS011;38934;52.690;6.184;2023-06-19T10:44:32;8.25;;;7.28;;
53052;SDS011;38934;52.690;6.184;2023-06-19T10:46:58;10.15;;;7.80;;
53052;SDS011;38934;52.690;6.184;2023-06-19T10:49:24;10.15;;;7.95;;
53052;SDS011;38934;52.690;6.184;2023-06-19T10:51:49;11.07;;;7.90;;
53052;SDS011;38934;52.690;6.184;2023-06-19T10:54:15;9.60;;;7.95;;
53052;SDS011;38934;52.690;6.184;2023-06-19T10:56:41;8.75;;;7.68;;
53052;SDS011;38934;52.690;6.184;2023-06-19T10:59:09;9.15;;;7.80;;
53052;SDS011;38934;52.690;6.184;2023-06-19T11:01:37;11.85;;;7.85;;
53052;SDS011;38934;52.690;6.184;2023-06-19T11:04:05;9.52;;;6.97;;
53052;SDS011;38934;52.690;6.184;2023-06-19T11:06:32;9.38;;;8.38;;
53052;SDS011;38934;52.690;6.184;2023-06-19T11:08:59;10.57;;;9.35;;
53052;SDS011;38934;52.690;6.184;2023-06-19T11:11:35;12.18;;;8.70;;
53052;SDS011;38934;52.690;6.184;2023-06-19T11:14:01;12.52;;;9.30;;
53052;SDS011;38934;52.690;6.184;2023-06-19T11:16:26;10.88;;;8.07;;
53052;SDS011;38934;52.690;6.184;2023-06-19T11:18:56;13.13;;;9.27;;
53052;SDS011;38934;52.690;6.184;2023-06-19T11:21:28;9.57;;;8.50;;
53052;SDS011;38934;52.690;6.184;2023-06-19T11:24:00;10.23;;;8.88;;
53052;SDS011;38934;52.690;6.184;2023-06-19T11:26:26;10.27;;;8.65;;
53052;SDS011;38934;52.690;6.184;2023-06-19T11:28:52;10.25;;;8.35;;
53052;SDS011;38934;52.690;6.184;2023-06-19T11:31:24;11.48;;;8.15;;
53052;SDS011;38934;52.690;6.184;2023-06-19T11:33:57;9.15;;;8.18;;
53052;SDS011;38934;52.690;6.184;2023-06-19T11:36:29;11.73;;;8.23;;
53052;SDS011;38934;52.690;6.184;2023-06-19T11:38:55;11.25;;;8.82;;
53052;SDS011;38934;52.690;6.184;2023-06-19T11:41:27;10.30;;;8.55;;
53052;SDS011;38934;52.690;6.184;2023-06-19T11:44:02;10.40;;;7.78;;
53052;SDS011;38934;52.690;6.184;2023-06-19T11:46:30;11.43;;;8.57;;
53052;SDS011;38934;52.690;6.184;2023-06-19T11:49:16;11.05;;;9.30;;
53052;SDS011;38934;52.690;6.184;2023-06-19T11:51:45;9.93;;;7.63;;
53052;SDS011;38934;52.690;6.184;2023-06-19T11:54:11;10.93;;;8.63;;
53052;SDS011;38934;52.690;6.184;2023-06-19T11:56:43;10.45;;;9.25;;
53052;SDS011;38934;52.690;6.184;2023-06-19T11:59:08;10.68;;;8.85;;
53052;SDS011;38934;52.690;6.184;2023-06-19T12:01:35;12.63;;;9.60;;
53052;SDS011;38934;52.690;6.184;2023-06-19T12:04:02;11.65;;;9.60;;
53052;SDS011;38934;52.690;6.184;2023-06-19T12:06:28;10.40;;;8.48;;
53052;SDS011;38934;52.690;6.184;2023-06-19T12:08:55;9.63;;;8.27;;
53052;SDS011;38934;52.690;6.184;2023-06-19T12:11:21;11.27;;;8.60;;
53052;SDS011;38934;52.690;6.184;2023-06-19T12:13:47;10.50;;;8.48;;
53052;SDS011;38934;52.690;6.184;2023-06-19T12:16:13;13.88;;;9.27;;
53052;SDS011;38934;52.690;6.184;2023-06-19T12:18:39;12.70;;;8.38;;
53052;SDS011;38934;52.690;6.184;2023-06-19T12:21:05;12.30;;;8.50;;
53052;SDS011;38934;52.690;6.184;2023-06-19T12:23:31;11.20;;;8.68;;
53052;SDS011;38934;52.690;6.184;2023-06-19T12:25:57;11.15;;;8.40;;
53052;SDS011;38934;52.690;6.184;2023-06-19T12:28:23;12.07;;;8.85;;
53052;SDS011;38934;52.690;6.184;2023-06-19T12:30:50;11.50;;;8.85;;
53052;SDS011;38934;52.690;6.184;2023-06-19T12:33:20;12.48;;;8.95;;
53052;SDS011;38934;52.690;6.184;2023-06-19T12:35:46;12.52;;;8.20;;
53052;SDS011;38934;52.690;6.184;2023-06-19T12:38:12;9.50;;;8.50;;
53052;SDS011;38934;52.690;6.184;2023-06-19T12:40:37;11.98;;;9.43;;
53052;SDS011;38934;52.690;6.184;2023-06-19T12:43:03;16.20;;;11.13;;
53052;SDS011;38934;52.690;6.184;2023-06-19T12:45:29;10.52;;;8.85;;
53052;SDS011;38934;52.690;6.184;2023-06-19T12:47:54;12.45;;;8.93;;
53052;SDS011;38934;52.690;6.184;2023-06-19T12:50:20;10.05;;;7.57;;
53052;SDS011;38934;52.690;6.184;2023-06-19T12:52:46;10.20;;;8.00;;
53052;SDS011;38934;52.690;6.184;2023-06-19T12:55:11;16.85;;;8.35;;
53052;SDS011;38934;52.690;6.184;2023-06-19T12:57:37;10.05;;;8.88;;
53052;SDS011;38934;52.690;6.184;2023-06-19T13:00:03;8.98;;;7.68;;
53052;SDS011;38934;52.690;6.184;2023-06-19T13:02:33;12.80;;;8.15;;
53052;SDS011;38934;52.690;6.184;2023-06-19T13:04:59;9.38;;;7.97;;
53052;SDS011;38934;52.690;6.184;2023-06-19T13:07:25;9.02;;;7.95;;
53052;SDS011;38934;52.690;6.184;2023-06-19T13:09:51;10.60;;;8.15;;
53052;SDS011;38934;52.690;6.184;2023-06-19T13:12:16;10.35;;;8.05;;
53052;SDS011;38934;52.690;6.184;2023-06-19T13:14:42;17.60;;;7.93;;
53052;SDS011;38934;52.690;6.184;2023-06-19T13:17:08;10.85;;;8.07;;
53052;SDS011;38934;52.690;6.184;2023-06-19T13:19:33;11.55;;;8.02;;
53052;SDS011;38934;52.690;6.184;2023-06-19T13:21:59;10.55;;;7.28;;
53052;SDS011;38934;52.690;6.184;2023-06-19T13:24:25;10.90;;;7.60;;
53052;SDS011;38934;52.690;6.184;2023-06-19T13:26:54;10.30;;;7.07;;
53052;SDS011;38934;52.690;6.184;2023-06-19T13:29:19;7.60;;;6.60;;
53052;SDS011;38934;52.690;6.184;2023-06-19T13:31:45;9.40;;;6.00;;
53052;SDS011;38934;52.690;6.184;2023-06-19T13:34:11;7.63;;;5.93;;
53052;SDS011;38934;52.690;6.184;2023-06-19T13:36:37;9.13;;;6.40;;
53052;SDS011;38934;52.690;6.184;2023-06-19T13:39:03;7.85;;;5.53;;
53052;SDS011;38934;52.690;6.184;2023-06-19T13:41:29;7.93;;;5.93;;
53052;SDS011;38934;52.690;6.184;2023-06-19T13:43:57;9.20;;;5.68;;
53052;SDS011;38934;52.690;6.184;2023-06-19T13:46:24;7.35;;;5.60;;
53052;SDS011;38934;52.690;6.184;2023-06-19T13:48:50;9.43;;;5.53;;
53052;SDS011;38934;52.690;6.184;2023-06-19T13:51:19;6.78;;;4.90;;
53052;SDS011;38934;52.690;6.184;2023-06-19T13:53:46;6.43;;;4.80;;
53052;SDS011;38934;52.690;6.184;2023-06-19T13:56:12;5.93;;;4.40;;
53052;SDS011;38934;52.690;6.184;2023-06-19T13:58:39;6.32;;;5.00;;
53052;SDS011;38934;52.690;6.184;2023-06-19T14:01:05;5.57;;;4.00;;
53052;SDS011;38934;52.690;6.184;2023-06-19T14:03:31;8.20;;;4.00;;
53052;SDS011;38934;52.690;6.184;2023-06-19T14:05:56;5.10;;;4.28;;
53052;SDS011;38934;52.690;6.184;2023-06-19T14:08:22;7.07;;;4.70;;
53052;SDS011;38934;52.690;6.184;2023-06-19T14:10:49;8.48;;;4.43;;
53052;SDS011;38934;52.690;6.184;2023-06-19T14:13:15;6.53;;;4.60;;
53052;SDS011;38934;52.690;6.184;2023-06-19T14:15:40;6.07;;;4.55;;
53052;SDS011;38934;52.690;6.184;2023-06-19T14:18:06;7.55;;;4.50;;
53052;SDS011;38934;52.690;6.184;2023-06-19T14:20:31;5.95;;;4.10;;
53052;SDS011;38934;52.690;6.184;2023-06-19T14:22:57;4.82;;;4.00;;
53052;SDS011;38934;52.690;6.184;2023-06-19T14:25:23;5.15;;;4.00;;
53052;SDS011;38934;52.690;6.184;2023-06-19T14:27:48;6.57;;;4.60;;
53052;SDS011;38934;52.690;6.184;2023-06-19T14:30:14;6.32;;;4.72;;
53052;SDS011;38934;52.690;6.184;2023-06-19T14:32:39;7.70;;;4.28;;
53052;SDS011;38934;52.690;6.184;2023-06-19T14:35:05;6.93;;;4.57;;
53052;SDS011;38934;52.690;6.184;2023-06-19T14:37:31;6.47;;;4.60;;
53052;SDS011;38934;52.690;6.184;2023-06-19T14:39:57;6.00;;;4.55;;
53052;SDS011;38934;52.690;6.184;2023-06-19T14:42:23;6.10;;;4.47;;
53052;SDS011;38934;52.690;6.184;2023-06-19T14:44:48;6.35;;;4.55;;